sensor_id;sensor_type;location;lat;lon;timestamp;pressure;altitude;pressure_sealevel;temperature;humidity
21395;BME280;10858;42.714;23.180;2023-02-01T00:00:26;94485.09;;;2.40;69.06
21395;BME280;10858;42.714;23.180;2023-02-01T00:02:52;94488.72;;;2.22;69.09
21395;BME280;10858;42.714;23.180;2023-02-01T00:05:18;94491.59;;;2.33;68.76
21395;BME280;10858;42.714;23.180;2023-02-01T00:07:47;94494.13;;;2.19;68.75
21395;BME280;10858;42.714;23.180;2023-02-01T00:10:14;94493.19;;;2.20;69.32
21395;BME280;10858;42.714;23.180;2023-02-01T00:12:41;94491.69;;;2.16;69.05
21395;BME280;10858;42.714;23.180;2023-02-01T00:15:07;94498.53;;;2.34;68.14
21395;BME280;10858;42.714;23.180;2023-02-01T00:17:34;94501.97;;;2.19;68.17
21395;BME280;10858;42.714;23.180;2023-02-01T00:20:00;94488.31;;;2.29;68.00
21395;BME280;10858;42.714;23.180;2023-02-01T00:22:27;94501.28;;;2.31;67.81
21395;BME280;10858;42.714;23.180;2023-02-01T00:24:53;94495.91;;;2.34;67.60
21395;BME280;10858;42.714;23.180;2023-02-01T00:27:19;94501.81;;;2.22;67.98
21395;BME280;10858;42.714;23.180;2023-02-01T00:29:47;94499.84;;;2.10;67.50
21395;BME280;10858;42.714;23.180;2023-02-01T00:32:13;94495.91;;;2.18;67.55
21395;BME280;10858;42.714;23.180;2023-02-01T00:34:40;94494.78;;;2.07;67.90
21395;BME280;10858;42.714;23.180;2023-02-01T00:37:06;94497.47;;;1.90;68.64
21395;BME280;10858;42.714;23.180;2023-02-01T00:39:36;94491.47;;;1.88;67.81
21395;BME280;10858;42.714;23.180;2023-02-01T00:42:02;94498.38;;;1.89;67.93
21395;BME280;10858;42.714;23.180;2023-02-01T00:44:29;94498.19;;;1.76;67.88
21395;BME280;10858;42.714;23.180;2023-02-01T00:46:59;94485.69;;;1.48;69.00
21395;BME280;10858;42.714;23.180;2023-02-01T00:49:25;94487.00;;;1.57;68.87
21395;BME280;10858;42.714;23.180;2023-02-01T00:51:52;94481.28;;;1.33;68.88
21395;BME280;10858;42.714;23.180;2023-02-01T00:54:18;94482.94;;;1.51;68.62
21395;BME280;10858;42.714;23.180;2023-02-01T00:56:44;94481.63;;;1.60;68.45
21395;BME280;10858;42.714;23.180;2023-02-01T00:59:14;94480.91;;;1.56;68.61
21395;BME280;10858;42.714;23.180;2023-02-01T01:01:40;94478.84;;;1.63;68.64
21395;BME280;10858;42.714;23.180;2023-02-01T01:04:06;94476.53;;;1.57;68.73
21395;BME280;10858;42.714;23.180;2023-02-01T01:06:34;94481.19;;;1.52;68.03
21395;BME280;10858;42.714;23.180;2023-02-01T01:09:03;94474.66;;;1.43;69.67
21395;BME280;10858;42.714;23.180;2023-02-01T01:11:32;94471.72;;;1.32;67.78
21395;BME280;10858;42.714;23.180;2023-02-01T01:14:00;94466.03;;;1.41;67.25
21395;BME280;10858;42.714;23.180;2023-02-01T01:16:27;94469.56;;;1.40;67.17
21395;BME280;10858;42.714;23.180;2023-02-01T01:18:55;94471.81;;;1.48;67.01
21395;BME280;10858;42.714;23.180;2023-02-01T01:21:21;94472.38;;;1.20;67.24
21395;BME280;10858;42.714;23.180;2023-02-01T01:23:47;94480.06;;;0.89;67.98
21395;BME280;10858;42.714;23.180;2023-02-01T01:26:16;94486.19;;;0.71;69.96
21395;BME280;10858;42.714;23.180;2023-02-01T01:28:42;94479.72;;;0.61;69.90
21395;BME280;10858;42.714;23.180;2023-02-01T01:31:10;94486.56;;;0.63;69.08
21395;BME280;10858;42.714;23.180;2023-02-01T01:33:37;94481.06;;;0.51;69.80
21395;BME280;10858;42.714;23.180;2023-02-01T01:36:09;94488.00;;;0.52;69.50
21395;BME280;10858;42.714;23.180;2023-02-01T01:38:39;94488.66;;;0.74;68.75
21395;BME280;10858;42.714;23.180;2023-02-01T01:41:06;94488.09;;;0.67;68.95
21395;BME280;10858;42.714;23.180;2023-02-01T01:43:48;94484.25;;;0.74;68.49
21395;BME280;10858;42.714;23.180;2023-02-01T01:46:20;94478.50;;;0.68;68.43
21395;BME280;10858;42.714;23.180;2023-02-01T01:48:56;94478.34;;;0.71;68.05
21395;BME280;10858;42.714;23.180;2023-02-01T01:51:24;94479.75;;;0.78;68.31
21395;BME280;10858;42.714;23.180;2023-02-01T01:53:58;94473.53;;;0.45;69.70
21395;BME280;10858;42.714;23.180;2023-02-01T01:56:26;94479.69;;;0.44;70.25
21395;BME280;10858;42.714;23.180;2023-02-01T01:58:54;94470.81;;;0.29;70.84
21395;BME280;10858;42.714;23.180;2023-02-01T02:01:20;94465.88;;;0.42;70.67
21395;BME280;10858;42.714;23.180;2023-02-01T02:03:47;94470.94;;;0.45;69.96
21395;BME280;10858;42.714;23.180;2023-02-01T02:09:05;94468.97;;;0.50;69.36
21395;BME280;10858;42.714;23.180;2023-02-01T02:11:31;94473.44;;;0.65;69.33
21395;BME280;10858;42.714;23.180;2023-02-01T02:13:58;94470.72;;;0.66;69.23
21395;BME280;10858;42.714;23.180;2023-02-01T02:24:39;94499.81;;;1.12;67.53
21395;BME280;10858;42.714;23.180;2023-02-01T02:28:08;94502.19;;;1.16;67.57
21395;BME280;10858;42.714;23.180;2023-02-01T02:36:34;94495.19;;;1.34;67.03
21395;BME280;10858;42.714;23.180;2023-02-01T02:39:53;94492.19;;;1.41;67.00
21395;BME280;10858;42.714;23.180;2023-02-01T02:42:08;94484.19;;;1.27;67.15
21395;BME280;10858;42.714;23.180;2023-02-01T02:45:09;94495.03;;;1.20;67.23
21395;BME280;10858;42.714;23.180;2023-02-01T02:48:34;94498.94;;;1.11;67.17
21395;BME280;10858;42.714;23.180;2023-02-01T02:54:12;94493.34;;;1.19;66.87
21395;BME280;10858;42.714;23.180;2023-02-01T02:56:59;94483.66;;;1.21;66.37
21395;BME280;10858;42.714;23.180;2023-02-01T02:59:48;94483.22;;;1.30;66.15
21395;BME280;10858;42.714;23.180;2023-02-01T03:02:33;94496.56;;;1.07;66.17
21395;BME280;10858;42.714;23.180;2023-02-01T03:05:18;94505.50;;;1.20;65.68
21395;BME280;10858;42.714;23.180;2023-02-01T03:07:57;94505.13;;;1.10;65.96
21395;BME280;10858;42.714;23.180;2023-02-01T03:10:47;94507.47;;;1.15;65.81
21395;BME280;10858;42.714;23.180;2023-02-01T03:18:36;94509.56;;;1.25;65.75
21395;BME280;10858;42.714;23.180;2023-02-01T03:21:12;94508.31;;;1.32;65.83
21395;BME280;10858;42.714;23.180;2023-02-01T03:23:43;94505.34;;;1.40;65.20
21395;BME280;10858;42.714;23.180;2023-02-01T03:26:14;94505.41;;;1.21;65.75
21395;BME280;10858;42.714;23.180;2023-02-01T03:28:56;94500.09;;;1.23;65.61
21395;BME280;10858;42.714;23.180;2023-02-01T03:31:24;94507.16;;;1.21;65.79
21395;BME280;10858;42.714;23.180;2023-02-01T03:33:50;94512.56;;;1.18;65.88
21395;BME280;10858;42.714;23.180;2023-02-01T03:39:41;94508.66;;;1.26;65.41
21395;BME280;10858;42.714;23.180;2023-02-01T03:42:35;94505.41;;;1.21;66.02
21395;BME280;10858;42.714;23.180;2023-02-01T03:45:24;94500.56;;;1.31;65.59
21395;BME280;10858;42.714;23.180;2023-02-01T03:47:55;94494.97;;;1.21;66.16
21395;BME280;10858;42.714;23.180;2023-02-01T03:50:24;94504.03;;;1.14;66.12
21395;BME280;10858;42.714;23.180;2023-02-01T03:52:58;94501.34;;;1.16;66.26
21395;BME280;10858;42.714;23.180;2023-02-01T03:55:27;94510.00;;;1.33;66.26
21395;BME280;10858;42.714;23.180;2023-02-01T03:58:21;94507.38;;;1.50;65.58
21395;BME280;10858;42.714;23.180;2023-02-01T04:00:58;94515.66;;;1.76;64.97
21395;BME280;10858;42.714;23.180;2023-02-01T04:03:26;94512.72;;;1.82;65.13
21395;BME280;10858;42.714;23.180;2023-02-01T04:05:54;94509.16;;;1.83;65.09
21395;BME280;10858;42.714;23.180;2023-02-01T04:08:21;94512.50;;;2.02;64.85
21395;BME280;10858;42.714;23.180;2023-02-01T04:10:48;94512.53;;;1.85;64.56
21395;BME280;10858;42.714;23.180;2023-02-01T04:13:14;94510.00;;;1.83;65.32
21395;BME280;10858;42.714;23.180;2023-02-01T04:15:40;94512.75;;;1.97;64.74
21395;BME280;10858;42.714;23.180;2023-02-01T04:18:07;94507.84;;;1.91;64.89
21395;BME280;10858;42.714;23.180;2023-02-01T04:20:33;94514.72;;;1.77;65.55
21395;BME280;10858;42.714;23.180;2023-02-01T04:22:59;94508.84;;;1.89;65.75
21395;BME280;10858;42.714;23.180;2023-02-01T04:25:28;94507.16;;;1.88;65.70
21395;BME280;10858;42.714;23.180;2023-02-01T04:27:55;94504.38;;;1.91;66.06
21395;BME280;10858;42.714;23.180;2023-02-01T04:30:21;94510.31;;;1.94;66.08
21395;BME280;10858;42.714;23.180;2023-02-01T04:32:49;94509.09;;;1.84;66.05
21395;BME280;10858;42.714;23.180;2023-02-01T04:35:16;94504.44;;;1.89;66.00
21395;BME280;10858;42.714;23.180;2023-02-01T04:37:43;94508.16;;;1.85;66.79
21395;BME280;10858;42.714;23.180;2023-02-01T04:40:10;94518.16;;;2.10;65.95
21395;BME280;10858;42.714;23.180;2023-02-01T04:42:37;94521.47;;;2.13;65.55
21395;BME280;10858;42.714;23.180;2023-02-01T04:45:03;94516.25;;;2.29;65.74
21395;BME280;10858;42.714;23.180;2023-02-01T04:47:30;94515.75;;;2.38;65.10
21395;BME280;10858;42.714;23.180;2023-02-01T04:49:56;94520.47;;;2.63;64.74
21395;BME280;10858;42.714;23.180;2023-02-01T04:52:22;94520.41;;;2.64;64.09
21395;BME280;10858;42.714;23.180;2023-02-01T04:54:49;94529.50;;;2.57;64.17
21395;BME280;10858;42.714;23.180;2023-02-01T04:57:15;94529.69;;;2.54;64.31
21395;BME280;10858;42.714;23.180;2023-02-01T04:59:41;94527.66;;;2.43;64.92
21395;BME280;10858;42.714;23.180;2023-02-01T05:02:07;94533.91;;;2.72;64.05
21395;BME280;10858;42.714;23.180;2023-02-01T05:04:34;94539.22;;;2.71;64.25
21395;BME280;10858;42.714;23.180;2023-02-01T05:07:00;94534.94;;;2.54;64.84
21395;BME280;10858;42.714;23.180;2023-02-01T05:09:27;94536.34;;;2.59;64.60
21395;BME280;10858;42.714;23.180;2023-02-01T05:11:53;94544.88;;;2.47;65.13
21395;BME280;10858;42.714;23.180;2023-02-01T05:14:37;94543.16;;;2.31;65.38
21395;BME280;10858;42.714;23.180;2023-02-01T05:17:04;94537.97;;;2.62;64.92
21395;BME280;10858;42.714;23.180;2023-02-01T05:19:30;94537.94;;;2.31;65.23
21395;BME280;10858;42.714;23.180;2023-02-01T05:21:57;94529.66;;;2.23;65.94
21395;BME280;10858;42.714;23.180;2023-02-01T05:24:23;94533.22;;;2.37;65.29
21395;BME280;10858;42.714;23.180;2023-02-01T05:26:49;94532.13;;;2.41;65.40
21395;BME280;10858;42.714;23.180;2023-02-01T05:29:17;94530.25;;;2.28;65.52
21395;BME280;10858;42.714;23.180;2023-02-01T05:31:45;94530.25;;;2.28;65.71
21395;BME280;10858;42.714;23.180;2023-02-01T05:34:11;94531.78;;;2.32;66.20
21395;BME280;10858;42.714;23.180;2023-02-01T05:36:38;94529.19;;;2.32;66.11
21395;BME280;10858;42.714;23.180;2023-02-01T05:39:04;94537.03;;;2.32;65.67
21395;BME280;10858;42.714;23.180;2023-02-01T05:41:30;94540.84;;;2.42;65.67
21395;BME280;10858;42.714;23.180;2023-02-01T05:43:57;94535.34;;;2.46;65.55
21395;BME280;10858;42.714;23.180;2023-02-01T05:46:23;94532.38;;;2.37;65.90
21395;BME280;10858;42.714;23.180;2023-02-01T05:48:50;94538.63;;;2.50;65.51
21395;BME280;10858;42.714;23.180;2023-02-01T05:51:16;94537.13;;;2.46;65.79
21395;BME280;10858;42.714;23.180;2023-02-01T05:53:42;94535.75;;;2.23;65.97
21395;BME280;10858;42.714;23.180;2023-02-01T05:56:09;94544.88;;;2.32;66.30
21395;BME280;10858;42.714;23.180;2023-02-01T05:58:35;94547.25;;;2.36;66.01
21395;BME280;10858;42.714;23.180;2023-02-01T06:01:03;94541.31;;;2.33;65.78
21395;BME280;10858;42.714;23.180;2023-02-01T06:03:29;94542.16;;;2.49;66.40
21395;BME280;10858;42.714;23.180;2023-02-01T06:05:56;94546.75;;;2.61;65.35
21395;BME280;10858;42.714;23.180;2023-02-01T06:08:22;94548.94;;;2.53;65.55
21395;BME280;10858;42.714;23.180;2023-02-01T06:10:56;94531.56;;;2.36;66.11
21395;BME280;10858;42.714;23.180;2023-02-01T06:13:23;94539.97;;;2.41;65.79
21395;BME280;10858;42.714;23.180;2023-02-01T06:15:50;94534.06;;;2.69;65.63
21395;BME280;10858;42.714;23.180;2023-02-01T06:18:17;94541.34;;;2.64;65.88
21395;BME280;10858;42.714;23.180;2023-02-01T06:20:44;94540.31;;;2.51;66.35
21395;BME280;10858;42.714;23.180;2023-02-01T06:23:10;94546.16;;;2.56;66.06
21395;BME280;10858;42.714;23.180;2023-02-01T06:25:36;94542.69;;;2.40;66.06
21395;BME280;10858;42.714;23.180;2023-02-01T06:28:03;94537.78;;;2.65;66.22
21395;BME280;10858;42.714;23.180;2023-02-01T06:30:31;94537.97;;;2.78;65.14
21395;BME280;10858;42.714;23.180;2023-02-01T06:32:58;94545.38;;;2.85;65.31
21395;BME280;10858;42.714;23.180;2023-02-01T06:35:24;94553.44;;;2.82;65.31
21395;BME280;10858;42.714;23.180;2023-02-01T06:37:52;94551.97;;;2.61;65.29
21395;BME280;10858;42.714;23.180;2023-02-01T06:40:18;94550.97;;;2.64;65.31
21395;BME280;10858;42.714;23.180;2023-02-01T06:42:53;94553.16;;;3.02;64.51
21395;BME280;10858;42.714;23.180;2023-02-01T06:45:20;94556.66;;;3.17;63.76
21395;BME280;10858;42.714;23.180;2023-02-01T06:47:46;94564.09;;;3.09;63.48
21395;BME280;10858;42.714;23.180;2023-02-01T06:50:12;94567.16;;;3.01;63.51
21395;BME280;10858;42.714;23.180;2023-02-01T06:52:38;94569.56;;;2.90;63.40
21395;BME280;10858;42.714;23.180;2023-02-01T06:55:05;94565.22;;;3.20;63.18
21395;BME280;10858;42.714;23.180;2023-02-01T06:57:31;94575.34;;;3.26;62.94
21395;BME280;10858;42.714;23.180;2023-02-01T07:00:00;94576.81;;;3.46;62.00
21395;BME280;10858;42.714;23.180;2023-02-01T07:02:26;94590.09;;;3.43;62.38
21395;BME280;10858;42.714;23.180;2023-02-01T07:04:53;94590.84;;;3.45;62.31
21395;BME280;10858;42.714;23.180;2023-02-01T07:07:19;94592.94;;;3.24;62.88
21395;BME280;10858;42.714;23.180;2023-02-01T07:09:46;94594.47;;;3.28;63.06
21395;BME280;10858;42.714;23.180;2023-02-01T07:12:12;94599.28;;;3.05;63.16
21395;BME280;10858;42.714;23.180;2023-02-01T07:14:39;94605.69;;;3.30;63.35
21395;BME280;10858;42.714;23.180;2023-02-01T07:17:05;94609.50;;;3.40;62.12
21395;BME280;10858;42.714;23.180;2023-02-01T07:19:31;94594.22;;;3.63;62.32
21395;BME280;10858;42.714;23.180;2023-02-01T07:21:58;94604.41;;;3.67;61.09
21395;BME280;10858;42.714;23.180;2023-02-01T07:24:24;94607.44;;;3.45;62.03
21395;BME280;10858;42.714;23.180;2023-02-01T07:26:51;94611.97;;;3.58;61.17
21395;BME280;10858;42.714;23.180;2023-02-01T07:29:18;94599.25;;;3.66;61.22
21395;BME280;10858;42.714;23.180;2023-02-01T07:31:54;94613.28;;;3.51;61.05
21395;BME280;10858;42.714;23.180;2023-02-01T07:34:21;94614.25;;;3.64;61.62
21395;BME280;10858;42.714;23.180;2023-02-01T07:36:47;94613.66;;;3.88;61.01
21395;BME280;10858;42.714;23.180;2023-02-01T07:39:13;94619.25;;;4.12;60.09
21395;BME280;10858;42.714;23.180;2023-02-01T07:41:39;94617.47;;;4.12;60.08
21395;BME280;10858;42.714;23.180;2023-02-01T07:44:06;94615.63;;;4.28;59.39
21395;BME280;10858;42.714;23.180;2023-02-01T07:46:32;94619.94;;;3.86;59.45
21395;BME280;10858;42.714;23.180;2023-02-01T07:48:59;94622.63;;;4.14;59.19
21395;BME280;10858;42.714;23.180;2023-02-01T07:51:25;94627.13;;;4.26;59.24
21395;BME280;10858;42.714;23.180;2023-02-01T07:53:51;94623.13;;;4.35;58.87
21395;BME280;10858;42.714;23.180;2023-02-01T07:56:19;94620.28;;;4.38;58.58
21395;BME280;10858;42.714;23.180;2023-02-01T07:58:52;94625.19;;;4.44;58.06
21395;BME280;10858;42.714;23.180;2023-02-01T08:01:24;94626.00;;;4.16;59.68
21395;BME280;10858;42.714;23.180;2023-02-01T08:04:02;94632.03;;;4.46;58.55
21395;BME280;10858;42.714;23.180;2023-02-01T08:06:30;94629.03;;;4.38;58.53
21395;BME280;10858;42.714;23.180;2023-02-01T08:08:57;94626.56;;;4.49;58.33
21395;BME280;10858;42.714;23.180;2023-02-01T08:11:25;94634.28;;;4.66;58.61
21395;BME280;10858;42.714;23.180;2023-02-01T08:13:52;94630.41;;;4.29;58.85
21395;BME280;10858;42.714;23.180;2023-02-01T08:16:19;94628.44;;;4.47;58.44
21395;BME280;10858;42.714;23.180;2023-02-01T08:18:46;94630.69;;;4.39;58.44
21395;BME280;10858;42.714;23.180;2023-02-01T08:21:15;94631.66;;;4.38;58.09
21395;BME280;10858;42.714;23.180;2023-02-01T08:23:43;94622.91;;;4.38;58.22
21395;BME280;10858;42.714;23.180;2023-02-01T08:26:18;94635.69;;;4.58;57.49
21395;BME280;10858;42.714;23.180;2023-02-01T08:28:48;94630.31;;;4.45;58.69
21395;BME280;10858;42.714;23.180;2023-02-01T08:31:16;94641.22;;;4.67;58.25
21395;BME280;10858;42.714;23.180;2023-02-01T08:33:47;94635.91;;;4.69;57.10
21395;BME280;10858;42.714;23.180;2023-02-01T08:36:14;94645.72;;;4.51;57.87
21395;BME280;10858;42.714;23.180;2023-02-01T08:38:40;94639.53;;;4.66;56.79
21395;BME280;10858;42.714;23.180;2023-02-01T08:41:15;94638.50;;;4.55;57.84
21395;BME280;10858;42.714;23.180;2023-02-01T08:43:42;94641.84;;;5.13;56.47
21395;BME280;10858;42.714;23.180;2023-02-01T08:46:09;94639.34;;;5.38;55.08
21395;BME280;10858;42.714;23.180;2023-02-01T08:48:36;94628.94;;;5.49;54.14
21395;BME280;10858;42.714;23.180;2023-02-01T08:51:09;94619.28;;;6.03;53.81
21395;BME280;10858;42.714;23.180;2023-02-01T08:53:37;94616.13;;;6.86;50.95
21395;BME280;10858;42.714;23.180;2023-02-01T08:56:04;94628.47;;;6.48;51.40
21395;BME280;10858;42.714;23.180;2023-02-01T08:58:31;94634.06;;;5.91;52.44
21395;BME280;10858;42.714;23.180;2023-02-01T09:01:01;94630.06;;;5.86;53.42
21395;BME280;10858;42.714;23.180;2023-02-01T09:03:28;94637.84;;;5.34;53.21
21395;BME280;10858;42.714;23.180;2023-02-01T09:06:00;94629.94;;;4.93;54.76
21395;BME280;10858;42.714;23.180;2023-02-01T09:08:27;94637.63;;;5.10;54.96
21395;BME280;10858;42.714;23.180;2023-02-01T09:10:53;94640.69;;;5.58;53.01
21395;BME280;10858;42.714;23.180;2023-02-01T09:13:19;94644.78;;;6.15;52.24
21395;BME280;10858;42.714;23.180;2023-02-01T09:15:46;94632.59;;;6.64;52.42
21395;BME280;10858;42.714;23.180;2023-02-01T09:18:12;94643.97;;;7.39;49.66
21395;BME280;10858;42.714;23.180;2023-02-01T09:20:39;94645.44;;;7.43;48.46
21395;BME280;10858;42.714;23.180;2023-02-01T09:23:05;94644.88;;;7.14;48.51
21395;BME280;10858;42.714;23.180;2023-02-01T09:25:33;94643.59;;;7.56;48.26
21395;BME280;10858;42.714;23.180;2023-02-01T09:27:59;94642.09;;;8.35;47.83
21395;BME280;10858;42.714;23.180;2023-02-01T09:30:25;94640.75;;;8.76;45.27
21395;BME280;10858;42.714;23.180;2023-02-01T09:32:52;94637.22;;;8.64;46.86
21395;BME280;10858;42.714;23.180;2023-02-01T09:35:18;94634.50;;;8.07;45.84
21395;BME280;10858;42.714;23.180;2023-02-01T09:37:45;94623.28;;;7.69;47.26
21395;BME280;10858;42.714;23.180;2023-02-01T09:40:14;94628.25;;;6.88;48.14
21395;BME280;10858;42.714;23.180;2023-02-01T09:45:50;94616.75;;;6.89;47.87
21395;BME280;10858;42.714;23.180;2023-02-01T09:48:24;94610.09;;;7.09;48.37
21395;BME280;10858;42.714;23.180;2023-02-01T09:50:56;94604.63;;;7.83;47.77
21395;BME280;10858;42.714;23.180;2023-02-01T09:53:38;94585.59;;;8.02;45.77
21395;BME280;10858;42.714;23.180;2023-02-01T09:58:49;94597.50;;;8.42;45.26
21395;BME280;10858;42.714;23.180;2023-02-01T10:01:25;94588.16;;;8.03;46.06
21395;BME280;10858;42.714;23.180;2023-02-01T10:04:13;94591.66;;;8.49;45.65
21395;BME280;10858;42.714;23.180;2023-02-01T10:20:44;94584.47;;;7.58;46.97
21395;BME280;10858;42.714;23.180;2023-02-01T10:26:25;94580.69;;;7.50;46.49
21395;BME280;10858;42.714;23.180;2023-02-01T10:28:57;94575.19;;;7.77;48.68
21395;BME280;10858;42.714;23.180;2023-02-01T10:31:28;94575.28;;;7.99;47.12
21395;BME280;10858;42.714;23.180;2023-02-01T10:34:00;94573.47;;;7.99;46.58
21395;BME280;10858;42.714;23.180;2023-02-01T10:36:36;94579.31;;;6.97;48.08
21395;BME280;10858;42.714;23.180;2023-02-01T10:39:05;94580.19;;;6.72;49.62
21395;BME280;10858;42.714;23.180;2023-02-01T10:41:38;94575.16;;;6.44;49.58
21395;BME280;10858;42.714;23.180;2023-02-01T10:44:11;94580.63;;;6.16;50.51
21395;BME280;10858;42.714;23.180;2023-02-01T10:46:38;94580.81;;;6.00;51.09
21395;BME280;10858;42.714;23.180;2023-02-01T10:49:08;94582.69;;;5.59;51.71
21395;BME280;10858;42.714;23.180;2023-02-01T10:51:52;94562.53;;;6.85;49.59
21395;BME280;10858;42.714;23.180;2023-02-01T10:54:23;94564.38;;;8.14;47.38
21395;BME280;10858;42.714;23.180;2023-02-01T10:56:57;94573.97;;;8.39;45.70
21395;BME280;10858;42.714;23.180;2023-02-01T10:59:25;94572.19;;;8.50;45.85
21395;BME280;10858;42.714;23.180;2023-02-01T11:05:08;94578.47;;;7.33;47.57
21395;BME280;10858;42.714;23.180;2023-02-01T11:07:36;94583.56;;;6.49;48.94
21395;BME280;10858;42.714;23.180;2023-02-01T11:10:05;94565.13;;;6.12;50.50
21395;BME280;10858;42.714;23.180;2023-02-01T11:12:36;94561.78;;;6.35;51.27
21395;BME280;10858;42.714;23.180;2023-02-01T11:15:29;94565.53;;;6.56;49.85
21395;BME280;10858;42.714;23.180;2023-02-01T11:17:56;94563.94;;;6.78;50.70
21395;BME280;10858;42.714;23.180;2023-02-01T11:23:00;94552.06;;;7.33;49.68
21395;BME280;10858;42.714;23.180;2023-02-01T11:25:27;94543.91;;;7.36;47.95
21395;BME280;10858;42.714;23.180;2023-02-01T11:27:55;94543.75;;;7.50;48.40
21395;BME280;10858;42.714;23.180;2023-02-01T11:30:37;94539.44;;;7.49;49.20
21395;BME280;10858;42.714;23.180;2023-02-01T11:33:05;94537.47;;;7.63;47.25
21395;BME280;10858;42.714;23.180;2023-02-01T11:35:37;94541.75;;;7.53;48.17
21395;BME280;10858;42.714;23.180;2023-02-01T11:38:17;94537.25;;;7.19;47.70
21395;BME280;10858;42.714;23.180;2023-02-01T11:40:45;94537.63;;;6.89;48.07
21395;BME280;10858;42.714;23.180;2023-02-01T11:45:58;94519.13;;;7.15;49.47
21395;BME280;10858;42.714;23.180;2023-02-01T11:48:27;94524.94;;;7.31;48.40
21395;BME280;10858;42.714;23.180;2023-02-01T11:56:39;94516.91;;;8.02;46.96
21395;BME280;10858;42.714;23.180;2023-02-01T11:59:20;94516.19;;;8.00;47.22
21395;BME280;10858;42.714;23.180;2023-02-01T12:02:17;94511.88;;;8.55;46.81
21395;BME280;10858;42.714;23.180;2023-02-01T12:07:47;94515.16;;;8.13;46.42
21395;BME280;10858;42.714;23.180;2023-02-01T12:10:40;94520.16;;;7.94;47.75
21395;BME280;10858;42.714;23.180;2023-02-01T12:32:48;94514.84;;;8.29;45.31
21395;BME280;10858;42.714;23.180;2023-02-01T12:35:47;94502.22;;;8.99;44.98
21395;BME280;10858;42.714;23.180;2023-02-01T12:44:03;94505.84;;;8.98;44.86
21395;BME280;10858;42.714;23.180;2023-02-01T12:46:44;94513.56;;;8.45;45.35
21395;BME280;10858;42.714;23.180;2023-02-01T12:49:26;94513.78;;;8.31;44.18
21395;BME280;10858;42.714;23.180;2023-02-01T12:51:58;94510.41;;;8.96;43.99
21395;BME280;10858;42.714;23.180;2023-02-01T12:54:57;94516.13;;;9.86;41.84
21395;BME280;10858;42.714;23.180;2023-02-01T12:57:35;94513.47;;;9.86;41.54
21395;BME280;10858;42.714;23.180;2023-02-01T13:00:27;94501.88;;;9.35;42.72
21395;BME280;10858;42.714;23.180;2023-02-01T13:11:42;94506.03;;;9.60;40.93
21395;BME280;10858;42.714;23.180;2023-02-01T13:16:58;94484.00;;;11.02;39.03
21395;BME280;10858;42.714;23.180;2023-02-01T13:19:31;94475.53;;;10.78;38.67
21395;BME280;10858;42.714;23.180;2023-02-01T13:22:21;94475.94;;;10.02;40.81
21395;BME280;10858;42.714;23.180;2023-02-01T13:27:20;94482.63;;;11.27;38.17
21395;BME280;10858;42.714;23.180;2023-02-01T13:29:55;94482.06;;;10.44;39.67
21395;BME280;10858;42.714;23.180;2023-02-01T13:40:39;94481.84;;;10.56;40.10
21395;BME280;10858;42.714;23.180;2023-02-01T13:43:27;94486.72;;;10.51;39.93
21395;BME280;10858;42.714;23.180;2023-02-01T13:46:04;94490.25;;;11.60;38.42
21395;BME280;10858;42.714;23.180;2023-02-01T13:48:56;94487.75;;;10.60;38.90
21395;BME280;10858;42.714;23.180;2023-02-01T13:51:57;94483.78;;;10.84;39.87
21395;BME280;10858;42.714;23.180;2023-02-01T13:54:37;94484.41;;;11.07;37.77
21395;BME280;10858;42.714;23.180;2023-02-01T13:57:06;94489.94;;;10.55;39.53
21395;BME280;10858;42.714;23.180;2023-02-01T14:05:11;94493.44;;;10.85;39.03
21395;BME280;10858;42.714;23.180;2023-02-01T14:10:55;94517.75;;;9.35;41.77
21395;BME280;10858;42.714;23.180;2023-02-01T14:13:40;94507.75;;;9.38;43.19
21395;BME280;10858;42.714;23.180;2023-02-01T14:16:11;94502.94;;;8.23;44.96
21395;BME280;10858;42.714;23.180;2023-02-01T14:21:24;94501.00;;;7.80;46.08
21395;BME280;10858;42.714;23.180;2023-02-01T14:23:59;94506.00;;;8.06;46.09
21395;BME280;10858;42.714;23.180;2023-02-01T14:34:28;94514.59;;;6.80;46.48
21395;BME280;10858;42.714;23.180;2023-02-01T14:37:05;94499.78;;;6.54;47.71
21395;BME280;10858;42.714;23.180;2023-02-01T14:42:32;94498.00;;;6.42;48.83
21395;BME280;10858;42.714;23.180;2023-02-01T14:56:00;94478.88;;;6.15;50.06
21395;BME280;10858;42.714;23.180;2023-02-01T14:58:43;94481.81;;;5.98;50.47
21395;BME280;10858;42.714;23.180;2023-02-01T15:09:21;94490.22;;;6.16;50.02
21395;BME280;10858;42.714;23.180;2023-02-01T15:12:23;94488.13;;;6.21;50.10
21395;BME280;10858;42.714;23.180;2023-02-01T15:15:14;94480.84;;;6.12;49.75
21395;BME280;10858;42.714;23.180;2023-02-01T15:17:41;94480.22;;;6.08;50.32
21395;BME280;10858;42.714;23.180;2023-02-01T15:20:28;94470.00;;;6.16;50.43
21395;BME280;10858;42.714;23.180;2023-02-01T15:23:05;94464.84;;;6.27;50.93
21395;BME280;10858;42.714;23.180;2023-02-01T15:25:35;94463.81;;;6.05;50.63
21395;BME280;10858;42.714;23.180;2023-02-01T15:28:02;94460.56;;;6.01;50.92
21395;BME280;10858;42.714;23.180;2023-02-01T15:30:32;94463.94;;;6.03;50.79
21395;BME280;10858;42.714;23.180;2023-02-01T15:33:17;94452.97;;;6.09;50.62
21395;BME280;10858;42.714;23.180;2023-02-01T15:35:49;94462.94;;;5.79;51.76
21395;BME280;10858;42.714;23.180;2023-02-01T15:41:13;94460.81;;;5.46;53.17
21395;BME280;10858;42.714;23.180;2023-02-01T15:46:47;94464.97;;;5.24;53.70
21395;BME280;10858;42.714;23.180;2023-02-01T15:51:52;94463.94;;;4.99;54.52
21395;BME280;10858;42.714;23.180;2023-02-01T15:54:29;94461.38;;;5.12;53.80
21395;BME280;10858;42.714;23.180;2023-02-01T15:57:00;94463.63;;;5.31;52.94
21395;BME280;10858;42.714;23.180;2023-02-01T15:59:40;94463.63;;;5.43;52.33
21395;BME280;10858;42.714;23.180;2023-02-01T16:02:26;94479.06;;;5.23;52.68
21395;BME280;10858;42.714;23.180;2023-02-01T16:04:53;94478.13;;;5.24;52.93
21395;BME280;10858;42.714;23.180;2023-02-01T16:07:27;94488.84;;;5.21;53.24